Time;durP1;ratioP1;P1;durP2;ratioP2;P2;SDS_P1;SDS_P2;PMS_P1;PMS_P2;Temp;Humidity;BMP_temperature;BMP_pressure;BME280_temperature;BME280_humidity;BME280_pressure;Samples;Min_cycle;Max_cycle;Signal;HPM_P1;HPM_P2
2021/05/18 00:00:32;;;;;;;26.10;9.77;;;10.00;91.50;;;;;;5038951;28;20046;-84
2021/05/18 00:02:58;;;;;;;16.97;9.27;;;10.00;91.50;;;;;;5072092;28;20031;-84
2021/05/18 00:05:25;;;;;;;20.40;10.77;;;10.00;91.50;;;;;;5073353;28;20107;-77
2021/05/18 00:08:03;;;;;;;23.50;11.10;;;10.00;91.50;;;;;;5072416;28;20476;-77
2021/05/18 00:13:18;;;;;;;17.20;9.97;;;10.00;91.60;;;;;;5073172;28;20036;-84
2021/05/18 00:15:45;;;;;;;23.20;10.47;;;10.00;91.60;;;;;;5055386;28;20115;-77
2021/05/18 00:18:12;;;;;;;23.50;10.67;;;10.00;91.60;;;;;;5073252;28;20020;-77
2021/05/18 00:20:38;;;;;;;20.07;10.13;;;10.00;91.60;;;;;;5055825;28;20089;-77
2021/05/18 00:23:06;;;;;;;24.57;11.23;;;10.00;91.60;;;;;;5059694;28;20523;-77
2021/05/18 00:25:31;;;;;;;20.80;10.00;;;10.00;91.70;;;;;;5059760;28;20024;-77
2021/05/18 00:27:57;;;;;;;21.27;10.53;;;10.10;91.70;;;;;;5077342;28;20570;-77
2021/05/18 00:30:24;;;;;;;19.37;9.57;;;9.90;91.70;;;;;;5060825;28;20108;-77
2021/05/18 00:32:50;;;;;;;24.27;10.40;;;9.90;91.70;;;;;;5039542;28;20025;-85
2021/05/18 00:35:16;;;;;;;21.63;10.43;;;9.90;91.70;;;;;;5055799;28;20024;-85
2021/05/18 00:37:42;;;;;;;20.77;9.90;;;9.90;91.70;;;;;;5055780;28;20033;-77
2021/05/18 00:40:11;;;;;;;23.70;9.97;;;9.80;91.70;;;;;;5055641;28;20041;-77
2021/05/18 00:42:52;;;;;;;17.00;9.40;;;9.80;91.80;;;;;;5057157;28;20078;-77
2021/05/18 00:45:36;;;;;;;18.47;9.73;;;9.90;91.90;;;;;;5057181;28;20488;-77
2021/05/18 00:48:04;;;;;;;21.38;10.80;;;9.90;91.90;;;;;;5057233;28;20029;-84
2021/05/18 00:50:30;;;;;;;23.80;10.93;;;9.90;92.00;;;;;;5039106;28;20033;-77
2021/05/18 00:52:56;;;;;;;21.67;10.77;;;9.90;92.10;;;;;;5055729;28;20025;-77
2021/05/18 00:55:39;;;;;;;25.97;12.70;;;9.90;92.10;;;;;;5055888;28;20033;-77
2021/05/18 00:58:27;;;;;;;27.80;11.77;;;9.90;92.20;;;;;;5040719;28;20400;-77
2021/05/18 01:01:23;;;;;;;24.90;11.40;;;10.00;92.30;;;;;;5055694;28;20346;-77
2021/05/18 01:03:51;;;;;;;24.13;12.23;;;10.00;92.40;;;;;;5055281;28;20107;-77
2021/05/18 01:06:28;;;;;;;23.97;10.93;;;10.00;92.40;;;;;;5056603;28;20545;-77
2021/05/18 01:09:00;;;;;;;23.00;10.13;;;10.10;92.50;;;;;;5055231;28;20029;-77
2021/05/18 01:11:29;;;;;;;23.93;10.97;;;10.00;92.50;;;;;;5056231;28;20387;-77
2021/05/18 01:14:00;;;;;;;21.77;10.70;;;10.00;92.70;;;;;;5055129;28;20028;-77
2021/05/18 01:16:29;;;;;;;20.40;9.40;;;10.00;92.50;;;;;;5055098;28;20029;-77
2021/05/18 01:18:54;;;;;;;17.23;9.80;;;10.10;92.50;;;;;;5055164;28;20119;-77
2021/05/18 01:21:20;;;;;;;22.03;10.93;;;10.10;92.50;;;;;;5055496;28;20064;-77
2021/05/18 01:23:46;;;;;;;20.10;9.80;;;10.10;92.80;;;;;;5055306;28;20036;-77
2021/05/18 01:26:14;;;;;;;20.67;11.07;;;10.20;92.50;;;;;;5038381;28;20451;-77
2021/05/18 01:28:40;;;;;;;19.37;9.50;;;10.30;92.50;;;;;;5056229;28;20069;-77
2021/05/18 01:31:08;;;;;;;18.93;10.17;;;10.20;92.50;;;;;;5054780;28;20419;-77
2021/05/18 01:33:34;;;;;;;21.00;10.00;;;10.30;92.50;;;;;;5053922;28;20025;-77
2021/05/18 01:36:01;;;;;;;20.70;10.93;;;10.20;92.50;;;;;;5054606;28;20033;-77
2021/05/18 01:39:10;;;;;;;20.13;10.83;;;10.20;92.50;;;;;;5054573;28;20461;-85
2021/05/18 01:44:06;;;;;;;24.47;12.40;;;10.20;92.50;;;;;;5056026;28;20078;-85
2021/05/18 01:46:32;;;;;;;26.03;11.80;;;10.30;92.60;;;;;;5054277;28;20017;-84
2021/05/18 01:49:00;;;;;;;24.30;12.10;;;10.30;92.60;;;;;;5054756;28;20063;-85
2021/05/18 01:51:34;;;;;;;25.27;12.43;;;10.30;92.50;;;;;;5054327;28;20529;-85
2021/05/18 01:54:06;;;;;;;27.07;12.37;;;10.40;92.50;;;;;;5054361;28;20028;-85
2021/05/18 01:59:05;;;;;;;25.57;11.53;;;10.40;92.50;;;;;;5054691;28;20037;-85
2021/05/18 02:01:32;;;;;;;25.00;13.30;;;10.40;92.50;;;;;;5052712;28;20020;-85
2021/05/18 02:03:58;;;;;;;23.43;11.93;;;10.50;92.60;;;;;;5053968;28;20504;-85
2021/05/18 02:06:24;;;;;;;23.13;12.37;;;10.50;92.50;;;;;;5056191;28;20481;-85
2021/05/18 02:08:50;;;;;;;22.77;12.33;;;10.50;92.50;;;;;;5070331;28;20043;-85
2021/05/18 02:11:16;;;;;;;25.20;12.30;;;10.40;92.50;;;;;;5055175;28;20031;-85
2021/05/18 02:13:47;;;;;;;26.80;13.83;;;10.50;92.50;;;;;;5037318;28;20055;-85
2021/05/18 02:16:28;;;;;;;23.63;12.23;;;10.50;92.50;;;;;;5022154;28;20017;-84
2021/05/18 02:19:09;;;;;;;20.00;10.93;;;10.60;92.50;;;;;;5054371;28;20071;-85
2021/05/18 02:26:44;;;;;;;22.17;12.35;;;10.60;92.50;;;;;;5054290;28;20118;-85
2021/05/18 02:29:10;;;;;;;24.33;11.90;;;10.60;92.50;;;;;;5044736;28;20397;-84
2021/05/18 02:31:36;;;;;;;24.30;13.37;;;10.70;92.60;;;;;;5020367;28;20032;-85
2021/05/18 02:34:02;;;;;;;28.10;12.87;;;10.70;92.60;;;;;;5036957;28;20431;-85
2021/05/18 02:36:28;;;;;;;24.33;12.27;;;10.70;92.60;;;;;;5036860;28;20503;-85
2021/05/18 02:38:54;;;;;;;22.63;12.43;;;10.80;92.60;;;;;;5036639;28;20025;-85
2021/05/18 02:41:20;;;;;;;21.17;12.50;;;10.70;92.60;;;;;;5070258;28;20419;-84
2021/05/18 02:44:04;;;;;;;25.93;12.10;;;10.70;92.60;;;;;;5040145;28;20025;-84
2021/05/18 02:51:31;;;;;;;26.37;12.13;;;10.80;92.60;;;;;;5074493;28;20035;-82
2021/05/18 02:53:57;;;;;;;26.40;12.20;;;10.80;92.90;;;;;;5056805;28;20388;-81
2021/05/18 02:56:47;;;;;;;25.63;11.73;;;10.80;92.60;;;;;;5040051;28;20495;-83
2021/05/18 02:59:27;;;;;;;21.43;11.80;;;10.80;92.60;;;;;;5075171;28;20115;-82
2021/05/18 03:02:00;;;;;;;20.80;10.90;;;10.80;92.60;;;;;;5060248;28;20028;-83
2021/05/18 03:04:27;;;;;;;27.43;12.27;;;10.90;92.60;;;;;;5073289;28;20035;-82
2021/05/18 03:06:53;;;;;;;27.43;13.13;;;10.90;92.60;;;;;;5040310;28;20037;-83
2021/05/18 03:09:20;;;;;;;22.37;12.23;;;10.90;92.60;;;;;;5074133;28;20024;-83
2021/05/18 03:11:49;;;;;;;26.13;12.67;;;10.80;92.60;;;;;;5073645;28;20034;-82
2021/05/18 03:14:16;;;;;;;22.20;11.50;;;10.90;92.60;;;;;;5073690;28;20032;-82
2021/05/18 03:16:43;;;;;;;28.53;12.93;;;11.00;92.70;;;;;;5073251;28;20025;-82
2021/05/18 03:19:11;;;;;;;22.40;14.33;;;10.90;92.60;;;;;;5073355;28;20021;-82
2021/05/18 03:21:42;;;;;;;25.43;12.80;;;10.90;92.70;;;;;;5074557;28;20388;-82
2021/05/18 03:24:08;;;;;;;23.70;11.53;;;11.00;92.70;;;;;;5073271;28;20024;-83
2021/05/18 03:26:37;;;;;;;27.87;11.70;;;11.00;92.70;;;;;;5056317;28;20520;-84
2021/05/18 03:29:22;;;;;;;22.07;12.13;;;11.10;92.70;;;;;;5073852;28;20031;-85
2021/05/18 03:34:37;;;;;;;18.87;11.33;;;11.00;92.60;;;;;;5074747;28;20036;-82
2021/05/18 03:37:13;;;;;;;20.93;12.97;;;11.00;92.60;;;;;;5072708;28;20116;-83
2021/05/18 03:39:40;;;;;;;29.00;13.37;;;11.00;92.60;;;;;;5073097;28;20047;-84
2021/05/18 03:53:06;;;;;;;25.63;13.00;;;11.00;92.60;;;;;;5074242;28;20399;-85
2021/05/18 04:04:25;;;;;;;24.08;13.52;;;11.00;92.70;;;;;;5072893;28;20120;-84
2021/05/18 04:17:28;;;;;;;31.97;14.97;;;11.10;92.70;;;;;;5073477;28;20491;-85
2021/05/18 04:41:40;;;;;;;24.65;16.00;;;11.20;92.90;;;;;;5073393;28;20033;-84
2021/05/18 04:49:51;;;;;;;30.90;17.23;;;11.30;92.90;;;;;;5072067;28;20407;-84
2021/05/18 04:52:22;;;;;;;32.20;17.63;;;11.30;92.90;;;;;;5057819;28;20395;-82
2021/05/18 05:00:25;;;;;;;25.47;18.00;;;11.40;92.90;;;;;;5072736;28;20576;-79
2021/05/18 05:03:18;;;;;;;28.67;19.35;;;11.40;93.00;;;;;;5072940;28;20074;-79
2021/05/18 05:08:27;;;;;;;34.45;20.88;;;11.30;93.20;;;;;;5067707;28;20400;-80
2021/05/18 05:16:02;;;;;;;36.13;23.83;;;11.30;93.40;;;;;;5073774;28;20032;-81
2021/05/18 05:18:28;;;;;;;35.50;23.33;;;11.30;93.50;;;;;;5062810;28;20040;-81
2021/05/18 05:20:54;;;;;;;37.30;24.17;;;11.20;93.60;;;;;;5049647;28;20392;-81
2021/05/18 05:23:19;;;;;;;35.73;25.27;;;11.20;93.70;;;;;;5054615;28;20033;-78
2021/05/18 05:25:45;;;;;;;39.30;26.40;;;11.20;93.90;;;;;;5074816;28;20044;-80
2021/05/18 05:28:10;;;;;;;41.67;28.27;;;11.20;94.00;;;;;;5073720;28;20086;-79
2021/05/18 05:30:36;;;;;;;49.17;28.80;;;11.20;94.00;;;;;;5074706;28;20035;-79
2021/05/18 05:33:02;;;;;;;42.53;29.57;;;11.30;94.10;;;;;;5058049;28;20033;-81
2021/05/18 05:35:28;;;;;;;46.77;29.50;;;11.30;94.00;;;;;;5075884;28;20032;-80
2021/05/18 05:37:54;;;;;;;40.73;28.20;;;11.30;94.10;;;;;;5076083;28;20425;-80
2021/05/18 05:40:20;;;;;;;46.47;29.43;;;11.30;94.00;;;;;;5057088;28;20082;-80
2021/05/18 05:42:46;;;;;;;43.13;28.40;;;11.40;94.10;;;;;;5055723;28;20033;-80
2021/05/18 05:45:12;;;;;;;37.77;27.03;;;11.40;94.10;;;;;;5054652;28;20089;-80
2021/05/18 05:47:38;;;;;;;42.27;27.67;;;11.40;94.20;;;;;;5054315;28;20048;-81
2021/05/18 05:50:04;;;;;;;45.00;26.53;;;11.40;94.20;;;;;;5054257;28;20469;-81
2021/05/18 05:52:32;;;;;;;37.80;27.53;;;11.40;94.20;;;;;;5054132;28;20029;-81
2021/05/18 05:54:58;;;;;;;40.27;26.80;;;11.40;94.30;;;;;;5055391;28;20032;-80
2021/05/18 05:57:24;;;;;;;40.40;27.13;;;11.40;94.30;;;;;;5053793;28;20131;-80
2021/05/18 05:59:49;;;;;;;38.77;27.47;;;11.50;94.40;;;;;;5055441;28;20044;-80
2021/05/18 06:02:15;;;;;;;47.73;29.20;;;11.50;94.50;;;;;;5053791;28;20029;-82
2021/05/18 06:04:41;;;;;;;42.93;29.47;;;11.60;94.70;;;;;;5037255;28;20087;-81
2021/05/18 06:07:06;;;;;;;46.47;33.20;;;11.60;94.60;;;;;;5053904;28;20036;-79
2021/05/18 06:09:35;;;;;;;44.58;31.90;;;11.60;94.70;;;;;;5053737;28;20061;-79
2021/05/18 06:17:51;;;;;;;41.80;30.15;;;11.70;94.70;;;;;;5054855;28;20144;-78
2021/05/18 06:42:01;;;;;;;39.65;26.67;;;11.90;94.70;;;;;;5054092;28;20048;-83
2021/05/18 06:50:42;;;;;;;36.03;23.80;;;12.10;94.30;;;;;;5054927;28;20031;-78
2021/05/18 06:52:44;;;;;;;33.90;22.77;;;12.20;94.20;;;;;;5053575;28;20025;-81
2021/05/18 06:55:16;;;;;;;31.23;21.40;;;12.30;94.20;;;;;;5064740;28;20028;-81
2021/05/18 06:57:48;;;;;;;31.13;22.38;;;12.40;94.20;;;;;;5037296;28;20045;-81
2021/05/18 07:00:19;;;;;;;34.90;24.05;;;12.40;94.10;;;;;;5052972;28;20511;-81
2021/05/18 07:02:46;;;;;;;31.58;22.05;;;12.50;94.00;;;;;;5036685;28;20400;-80
2021/05/18 07:05:22;;;;;;;34.53;23.20;;;12.50;93.90;;;;;;5036015;28;20135;-81
2021/05/18 07:07:56;;;;;;;35.92;24.73;;;12.50;93.80;;;;;;5053039;28;20032;-81
2021/05/18 07:10:22;;;;;;;33.72;22.95;;;12.50;93.70;;;;;;5037170;28;20148;-81
2021/05/18 07:12:48;;;;;;;37.03;24.88;;;12.50;93.60;;;;;;5053771;28;20104;-80
2021/05/18 07:15:14;;;;;;;39.03;26.17;;;12.50;93.60;;;;;;5035989;28;20059;-81
2021/05/18 07:17:40;;;;;;;38.72;24.50;;;12.40;93.40;;;;;;5053160;28;20029;-81
2021/05/18 07:20:07;;;;;;;37.22;25.48;;;12.40;93.40;;;;;;5036043;28;20055;-81
2021/05/18 07:22:32;;;;;;;37.60;25.65;;;12.40;93.40;;;;;;5036216;28;20025;-80
2021/05/18 07:24:58;;;;;;;34.63;25.45;;;12.40;93.40;;;;;;5036202;28;20063;-79
2021/05/18 07:27:23;;;;;;;35.80;24.90;;;12.40;93.50;;;;;;5054718;28;20037;-80
2021/05/18 07:29:49;;;;;;;38.47;24.77;;;12.30;93.50;;;;;;5054298;28;20033;-82
2021/05/18 07:32:14;;;;;;;33.15;22.17;;;12.30;93.50;;;;;;5052063;28;20476;-80
2021/05/18 07:34:40;;;;;;;21.60;15.45;;;12.30;93.70;;;;;;5053178;28;20434;-80
2021/05/18 07:37:06;;;;;;;15.88;9.98;;;12.20;93.10;;;;;;5052402;28;20061;-82
2021/05/18 07:39:31;;;;;;;11.18;6.80;;;12.20;92.90;;;;;;5052765;28;20037;-79
2021/05/18 07:41:57;;;;;;;9.68;5.63;;;12.20;92.50;;;;;;5052508;28;20037;-79
2021/05/18 07:44:23;;;;;;;8.50;4.40;;;12.10;92.40;;;;;;5067472;28;20029;-82
2021/05/18 07:46:48;;;;;;;9.00;5.28;;;12.10;92.30;;;;;;5052109;28;20056;-82
2021/05/18 07:49:36;;;;;;;8.35;4.60;;;12.10;92.30;;;;;;5052194;28;20041;-82
2021/05/18 08:05:26;;;;;;;19.58;12.50;;;12.10;92.30;;;;;;5052229;28;20044;-82
2021/05/18 08:07:52;;;;;;;20.48;13.02;;;12.20;92.60;;;;;;5035712;28;20033;-80
2021/05/18 08:10:21;;;;;;;20.60;13.63;;;12.10;93.20;;;;;;5053406;28;20499;-81
2021/05/18 08:12:47;;;;;;;20.92;14.52;;;12.10;93.20;;;;;;5035843;28;20043;-82
2021/05/18 08:18:11;;;;;;;21.40;14.98;;;12.10;93.40;;;;;;5053378;28;20475;-81
2021/05/18 10:36:06;;;;;;;0.85;0.35;;;14.70;72.80;;;;;;5074916;28;20059;-81
2021/05/18 10:38:43;;;;;;;2.00;0.60;;;14.80;72.70;;;;;;5058764;28;20028;-82
2021/05/18 10:41:12;;;;;;;1.85;0.50;;;14.90;71.50;;;;;;5073484;28;20055;-84
2021/05/18 10:43:39;;;;;;;2.17;0.60;;;15.00;70.90;;;;;;5074637;28;20025;-82
2021/05/18 10:46:11;;;;;;;3.28;0.93;;;15.10;71.30;;;;;;5073271;28;20387;-83
2021/05/18 10:48:40;;;;;;;3.42;1.00;;;15.20;71.70;;;;;;5059433;28;20388;-85
2021/05/18 10:51:31;;;;;;;4.22;1.27;;;15.40;72.10;;;;;;5053124;28;20029;-85
2021/05/18 10:54:10;;;;;;;2.45;0.95;;;15.60;71.90;;;;;;5054590;28;20017;-84
2021/05/18 10:57:09;;;;;;;2.45;0.93;;;16.30;73.20;;;;;;5054513;28;20071;-85
2021/05/18 10:59:56;;;;;;;4.05;1.00;;;17.30;72.50;;;;;;5052631;28;20054;-85
2021/05/18 11:02:29;;;;;;;2.10;0.73;;;17.90;71.10;;;;;;5072544;28;20081;-84
2021/05/18 11:04:56;;;;;;;1.90;0.90;;;18.60;71.30;;;;;;5063127;28;20472;-83
2021/05/18 11:07:38;;;;;;;3.13;1.30;;;19.20;70.20;;;;;;5054213;28;20057;-81
2021/05/18 11:10:08;;;;;;;8.25;1.98;;;19.80;68.00;;;;;;5054089;28;20024;-85
2021/05/18 11:12:35;;;;;;;4.75;2.22;;;20.10;65.70;;;;;;5052789;28;20024;-83
2021/05/18 11:15:01;;;;;;;5.28;2.28;;;20.30;65.30;;;;;;5053009;28;20476;-83
2021/05/18 11:17:29;;;;;;;4.70;1.90;;;20.30;63.00;;;;;;5052590;28;20032;-85
2021/05/18 11:26:04;;;;;;;8.13;3.33;;;19.30;60.40;;;;;;5054062;28;20048;-83
2021/05/18 11:28:51;;;;;;;3.95;2.38;;;19.00;60.90;;;;;;5052422;28;20056;-84
2021/05/18 11:31:20;;;;;;;5.78;3.10;;;18.80;61.70;;;;;;5053944;28;20013;-85
2021/05/18 11:33:53;;;;;;;5.47;2.67;;;18.70;62.20;;;;;;5052461;28;20021;-85
2021/05/18 11:36:21;;;;;;;4.22;1.35;;;18.80;62.00;;;;;;5052335;28;20495;-84
2021/05/18 11:38:54;;;;;;;2.65;1.23;;;19.50;62.90;;;;;;5053705;28;20040;-84
2021/05/18 11:41:25;;;;;;;3.47;1.10;;;20.30;61.80;;;;;;5052394;28;20532;-84
2021/05/18 11:43:54;;;;;;;3.53;1.30;;;21.20;58.80;;;;;;5052340;28;20385;-85
2021/05/18 11:46:20;;;;;;;3.47;1.40;;;21.70;57.10;;;;;;5052186;28;20029;-84
2021/05/18 11:49:00;;;;;;;3.42;0.98;;;22.20;55.80;;;;;;5052823;28;20036;-87
2021/05/18 11:51:32;;;;;;;2.05;0.90;;;22.70;53.70;;;;;;5070865;28;20029;-87
2021/05/18 11:54:05;;;;;;;3.55;1.33;;;23.30;52.60;;;;;;5071188;28;20027;-89
2021/05/18 11:56:33;;;;;;;2.50;1.05;;;23.60;51.20;;;;;;5073023;28;20025;-85
2021/05/18 11:59:00;;;;;;;3.95;1.90;;;23.60;49.80;;;;;;5072372;28;20017;-83
2021/05/18 12:01:26;;;;;;;5.10;1.95;;;23.10;47.80;;;;;;5073543;28;20025;-85
2021/05/18 12:04:11;;;;;;;5.10;2.58;;;22.50;48.00;;;;;;5072197;28;20021;-85
2021/05/18 12:06:41;;;;;;;6.75;2.75;;;21.40;48.60;;;;;;5071991;28;20028;-81
2021/05/18 12:09:10;;;;;;;6.95;2.53;;;20.60;49.90;;;;;;5073276;28;20024;-82
2021/05/18 12:11:36;;;;;;;5.10;2.40;;;20.00;50.90;;;;;;5056128;28;20337;-84
2021/05/18 12:14:08;;;;;;;3.90;1.50;;;19.90;51.80;;;;;;5038726;28;20021;-83
2021/05/18 12:16:41;;;;;;;2.85;1.17;;;20.40;52.40;;;;;;5072158;28;20021;-82
2021/05/18 12:19:11;;;;;;;2.15;0.82;;;21.30;52.30;;;;;;5076178;28;20021;-83
2021/05/18 12:21:37;;;;;;;3.63;1.10;;;21.90;51.80;;;;;;5077287;28;20020;-82
2021/05/18 12:24:13;;;;;;;2.58;1.02;;;22.20;50.90;;;;;;5076470;28;20525;-84
2021/05/18 12:26:48;;;;;;;3.60;1.00;;;22.80;49.80;;;;;;5076209;28;20024;-86
2021/05/18 12:29:40;;;;;;;2.42;0.93;;;22.90;48.60;;;;;;5077466;28;20021;-85
2021/05/18 12:32:28;;;;;;;3.28;0.80;;;22.80;46.60;;;;;;5077594;28;20048;-85
2021/05/18 12:35:18;;;;;;;3.50;1.02;;;22.60;46.30;;;;;;5077992;28;20021;-83
2021/05/18 12:37:47;;;;;;;2.58;0.80;;;22.30;45.50;;;;;;5076758;28;20041;-84
2021/05/18 12:40:28;;;;;;;3.25;0.98;;;22.50;45.80;;;;;;5076973;28;20047;-85
2021/05/18 12:42:55;;;;;;;3.95;0.70;;;23.10;45.60;;;;;;5076967;28;20063;-87
2021/05/18 12:45:26;;;;;;;4.32;1.23;;;23.80;45.80;;;;;;5075767;28;20035;-85
2021/05/18 12:47:54;;;;;;;3.05;0.85;;;24.40;43.90;;;;;;5076926;28;20581;-84
2021/05/18 12:50:19;;;;;;;2.70;0.93;;;25.00;43.70;;;;;;5077153;28;20029;-85
2021/05/18 12:52:52;;;;;;;2.38;0.95;;;25.20;43.10;;;;;;5077360;28;20086;-84
2021/05/18 12:55:27;;;;;;;1.83;0.77;;;25.40;43.30;;;;;;5077395;28;20025;-85
2021/05/18 12:58:07;;;;;;;1.73;0.60;;;25.90;42.80;;;;;;5075562;28;20411;-87
2021/05/18 13:00:40;;;;;;;3.17;1.02;;;26.40;42.10;;;;;;5075387;28;20062;-86
2021/05/18 13:03:16;;;;;;;2.75;0.85;;;26.50;41.70;;;;;;5076656;28;20372;-85
2021/05/18 13:05:47;;;;;;;2.05;0.80;;;26.50;40.80;;;;;;5074318;28;20482;-86
2021/05/18 13:08:18;;;;;;;2.53;0.88;;;26.40;40.80;;;;;;5054980;28;20361;-85
2021/05/18 13:11:05;;;;;;;4.93;0.90;;;26.40;40.20;;;;;;5056623;28;20032;-83
2021/05/18 13:13:37;;;;;;;3.78;0.80;;;26.70;40.10;;;;;;5061697;28;20502;-84
2021/05/18 13:16:20;;;;;;;2.35;0.70;;;27.00;39.90;;;;;;5076344;28;20029;-85
2021/05/18 13:19:09;;;;;;;4.68;0.77;;;26.80;39.60;;;;;;5076932;28;20480;-84
2021/05/18 13:21:39;;;;;;;3.88;0.73;;;26.20;38.80;;;;;;5074811;28;20028;-84
2021/05/18 13:26:35;;;;;;;5.03;1.67;;;25.30;41.70;;;;;;5054910;28;20072;-84
2021/05/18 13:29:23;;;;;;;3.08;1.02;;;25.70;42.30;;;;;;5067123;28;20111;-84
2021/05/18 13:31:54;;;;;;;1.85;0.77;;;26.10;41.50;;;;;;5074822;28;20017;-82
2021/05/18 13:34:20;;;;;;;4.78;1.50;;;26.40;41.40;;;;;;5075884;28;20107;-84
2021/05/18 13:36:47;;;;;;;3.92;1.90;;;26.10;39.90;;;;;;5075006;28;20105;-84
2021/05/18 13:39:15;;;;;;;4.32;1.15;;;25.40;40.20;;;;;;5070361;28;20473;-83
2021/05/18 13:41:41;;;;;;;5.30;1.73;;;24.70;40.20;;;;;;5055945;28;20456;-82
2021/05/18 13:44:08;;;;;;;4.50;1.73;;;24.00;41.10;;;;;;5054727;28;20407;-84
2021/05/18 13:46:34;;;;;;;5.38;1.67;;;23.40;42.60;;;;;;5037873;28;20029;-83
2021/05/18 13:49:00;;;;;;;5.60;2.42;;;22.90;43.20;;;;;;5057013;28;20025;-84
2021/05/18 13:51:26;;;;;;;6.05;1.95;;;22.50;43.80;;;;;;5054652;28;20030;-83
2021/05/18 13:53:52;;;;;;;5.47;2.13;;;22.10;44.60;;;;;;5046781;28;20025;-83
2021/05/18 13:56:23;;;;;;;4.50;1.30;;;21.80;45.60;;;;;;5069252;28;20112;-75
2021/05/18 13:58:53;;;;;;;4.20;1.70;;;21.80;46.50;;;;;;5056179;28;20036;-74
2021/05/18 14:01:20;;;;;;;5.30;2.08;;;22.20;46.20;;;;;;5054361;28;20044;-76
2021/05/18 14:03:47;;;;;;;5.30;1.70;;;22.40;45.60;;;;;;5045832;28;20020;-76
2021/05/18 14:06:14;;;;;;;3.53;1.60;;;22.20;44.90;;;;;;5072105;28;20379;-74
2021/05/18 14:08:41;;;;;;;3.67;1.83;;;21.90;44.80;;;;;;5073855;28;20063;-75
2021/05/18 14:11:10;;;;;;;4.20;1.77;;;21.60;45.40;;;;;;5073856;28;20020;-76
2021/05/18 14:13:42;;;;;;;4.22;1.20;;;21.50;45.90;;;;;;5073762;28;20395;-76
2021/05/18 14:16:09;;;;;;;3.97;0.98;;;21.40;45.70;;;;;;5073726;28;20467;-74
2021/05/18 14:18:35;;;;;;;3.08;1.05;;;21.20;45.60;;;;;;5074406;28;20039;-78
2021/05/18 14:21:02;;;;;;;4.97;1.25;;;20.90;46.50;;;;;;5057465;28;20036;-74
2021/05/18 14:23:36;;;;;;;5.35;1.10;;;20.60;46.40;;;;;;5073581;28;20368;-76
2021/05/18 14:26:02;;;;;;;4.28;1.17;;;20.40;46.90;;;;;;5073961;28;20423;-75
2021/05/18 14:28:37;;;;;;;3.75;1.38;;;20.10;47.10;;;;;;5073129;28;20032;-75
2021/05/18 14:31:09;;;;;;;3.95;1.52;;;20.00;47.20;;;;;;5056872;28;20024;-73
2021/05/18 14:33:36;;;;;;;2.95;1.10;;;19.90;47.10;;;;;;5074800;28;20032;-75
2021/05/18 14:36:02;;;;;;;4.65;0.90;;;20.10;47.80;;;;;;5074921;28;20029;-75
2021/05/18 14:38:28;;;;;;;3.70;0.70;;;20.30;47.50;;;;;;5074648;28;20033;-77
2021/05/18 14:54:49;;;;;;;1.80;0.70;;;19.70;46.20;;;;;;5058507;28;20098;-74
2021/05/18 14:57:15;;;;;;;3.00;0.85;;;19.50;46.70;;;;;;5037269;28;20048;-75
2021/05/18 14:59:40;;;;;;;3.10;0.88;;;19.30;46.70;;;;;;5053179;28;20083;-75
2021/05/18 15:02:06;;;;;;;1.98;0.60;;;19.00;47.00;;;;;;5036652;28;20052;-77
2021/05/18 15:04:35;;;;;;;2.17;0.80;;;18.80;47.30;;;;;;5053662;28;20120;-77
2021/05/18 15:07:06;;;;;;;3.55;0.80;;;18.90;48.30;;;;;;5053308;28;20493;-74
2021/05/18 15:09:32;;;;;;;5.20;0.88;;;18.90;47.80;;;;;;5052803;28;20020;-75
2021/05/18 15:11:57;;;;;;;2.35;0.70;;;18.90;48.40;;;;;;5053236;28;20037;-75
2021/05/18 15:14:23;;;;;;;5.78;0.85;;;18.80;48.30;;;;;;5036289;28;20033;-76
2021/05/18 15:16:48;;;;;;;2.10;0.60;;;18.80;48.90;;;;;;5053256;28;20025;-77
2021/05/18 15:19:17;;;;;;;2.03;0.60;;;18.80;47.70;;;;;;5053284;28;20358;-75
2021/05/18 15:21:42;;;;;;;2.45;0.57;;;18.80;47.80;;;;;;5036932;28;20021;-76
2021/05/18 15:24:09;;;;;;;2.55;0.70;;;18.90;48.60;;;;;;5054018;28;20381;-75
2021/05/18 15:26:35;;;;;;;1.80;0.40;;;19.00;47.90;;;;;;5053961;28;20029;-74
2021/05/18 15:29:03;;;;;;;2.97;0.63;;;19.00;47.60;;;;;;5069581;28;20058;-76
2021/05/18 15:31:28;;;;;;;2.70;0.50;;;19.00;47.80;;;;;;5054205;28;20507;-75
2021/05/18 15:33:54;;;;;;;2.40;0.60;;;18.90;48.00;;;;;;5055360;28;20036;-74
2021/05/18 15:36:20;;;;;;;2.80;0.50;;;18.80;48.60;;;;;;5072581;28;20028;-76
2021/05/18 15:38:47;;;;;;;3.17;0.60;;;18.80;50.00;;;;;;5073845;28;20028;-76
2021/05/18 15:41:14;;;;;;;3.35;0.52;;;18.70;49.70;;;;;;5073682;28;20020;-76
2021/05/18 15:43:41;;;;;;;1.92;0.30;;;18.80;49.10;;;;;;5039596;28;20025;-75
2021/05/18 15:46:07;;;;;;;2.83;0.50;;;18.80;48.20;;;;;;5073612;28;20031;-74
2021/05/18 15:48:33;;;;;;;1.85;0.47;;;18.70;47.20;;;;;;5073410;28;20112;-82
2021/05/18 15:50:59;;;;;;;1.88;0.45;;;18.70;47.70;;;;;;5073420;28;20043;-80
2021/05/18 15:53:25;;;;;;;1.52;0.30;;;18.70;46.90;;;;;;5071757;28;20021;-80
2021/05/18 15:55:50;;;;;;;1.52;0.40;;;18.60;47.40;;;;;;5055618;28;20085;-80
2021/05/18 15:58:16;;;;;;;1.88;0.30;;;18.60;46.40;;;;;;5055358;28;20045;-79
2021/05/18 16:00:42;;;;;;;2.22;0.35;;;18.40;46.70;;;;;;5073152;28;20032;-79
2021/05/18 16:03:08;;;;;;;1.38;0.40;;;18.30;47.20;;;;;;5055547;28;20032;-80
2021/05/18 16:05:34;;;;;;;1.05;0.30;;;18.20;47.70;;;;;;5055395;28;20563;-78
2021/05/18 16:08:58;;;;;;;2.55;0.40;;;18.10;47.80;;;;;;5072728;28;20127;-79
2021/05/18 16:11:06;;;;;;;3.03;0.50;;;18.10;48.70;;;;;;5052174;28;20045;-81
2021/05/18 16:13:37;;;;;;;1.83;0.28;;;18.00;49.10;;;;;;5053822;28;20017;-79
2021/05/18 16:16:08;;;;;;;3.95;0.40;;;17.90;49.20;;;;;;5066708;28;20029;-78
2021/05/18 16:18:35;;;;;;;1.55;0.30;;;17.90;49.60;;;;;;5073251;28;20021;-79
2021/05/18 16:21:01;;;;;;;1.55;0.40;;;17.90;49.40;;;;;;5071925;28;20383;-78
2021/05/18 16:23:28;;;;;;;2.38;0.20;;;17.80;48.70;;;;;;5071994;28;20033;-81
2021/05/18 16:25:57;;;;;;;1.92;0.43;;;17.70;48.50;;;;;;5073062;28;20496;-81
2021/05/18 16:28:24;;;;;;;2.38;0.50;;;17.80;49.80;;;;;;5055392;28;20033;-81
2021/05/18 16:30:50;;;;;;;1.75;0.35;;;17.70;50.40;;;;;;5073041;28;20024;-80
2021/05/18 16:33:16;;;;;;;1.92;0.40;;;17.80;50.20;;;;;;5071483;28;20028;-78
2021/05/18 16:35:42;;;;;;;3.60;0.43;;;17.80;50.60;;;;;;5072820;28;20029;-81
2021/05/18 16:38:08;;;;;;;2.85;0.43;;;17.80;51.10;;;;;;5072859;28;20031;-82
2021/05/18 16:40:34;;;;;;;1.52;0.28;;;17.80;50.70;;;;;;5071776;28;20111;-79
2021/05/18 16:42:59;;;;;;;1.40;0.45;;;17.80;50.80;;;;;;5054969;28;20028;-80
2021/05/18 16:45:25;;;;;;;0.80;0.35;;;17.80;51.20;;;;;;5072993;28;20038;-81
2021/05/18 16:47:51;;;;;;;1.17;0.40;;;17.80;50.90;;;;;;5071661;28;20438;-79
2021/05/18 16:50:18;;;;;;;3.83;0.60;;;17.80;50.60;;;;;;5055469;28;20115;-81
2021/05/18 16:52:44;;;;;;;2.33;0.47;;;17.80;50.60;;;;;;5073107;28;20391;-81
2021/05/18 16:55:10;;;;;;;1.40;0.40;;;17.80;50.30;;;;;;5071629;28;20024;-80
2021/05/18 16:57:39;;;;;;;1.52;0.35;;;17.70;50.20;;;;;;5038373;28;20040;-79
2021/05/18 17:00:07;;;;;;;2.08;0.38;;;17.60;50.50;;;;;;5055021;28;20025;-80
2021/05/18 17:02:33;;;;;;;2.45;0.40;;;17.60;50.20;;;;;;5071791;28;20376;-81
2021/05/18 17:04:59;;;;;;;3.40;0.40;;;17.50;51.10;;;;;;5076658;28;20017;-82
2021/05/18 17:07:25;;;;;;;2.85;0.50;;;17.50;50.30;;;;;;5076364;28;20025;-81
2021/05/18 17:09:51;;;;;;;2.00;0.30;;;17.40;50.40;;;;;;5075455;28;20058;-83
2021/05/18 17:12:20;;;;;;;3.10;0.38;;;17.30;51.00;;;;;;5075296;28;20028;-81
2021/05/18 17:14:49;;;;;;;1.98;0.47;;;17.30;50.80;;;;;;5055383;28;20025;-82
2021/05/18 17:17:17;;;;;;;2.05;0.43;;;17.20;51.20;;;;;;5068345;28;20020;-81
2021/05/18 17:19:44;;;;;;;1.85;0.30;;;17.20;51.20;;;;;;5056278;28;20029;-82
2021/05/18 17:22:15;;;;;;;4.18;0.38;;;17.20;51.30;;;;;;5056527;28;20033;-80
2021/05/18 17:24:41;;;;;;;2.30;0.30;;;17.20;50.40;;;;;;5056360;28;20036;-81
2021/05/18 17:27:07;;;;;;;1.50;0.20;;;17.10;49.90;;;;;;5056079;28;20419;-81
2021/05/18 17:29:33;;;;;;;0.82;0.20;;;17.10;49.60;;;;;;5056335;28;20036;-81
2021/05/18 17:32:00;;;;;;;1.15;0.20;;;17.00;49.80;;;;;;5054667;28;20021;-81
2021/05/18 17:34:26;;;;;;;0.22;0.13;;;17.00;48.90;;;;;;5054647;28;20020;-77
2021/05/18 17:36:53;;;;;;;0.98;0.28;;;17.00;49.60;;;;;;5037950;28;20045;-82
2021/05/18 17:39:20;;;;;;;1.90;0.40;;;17.00;49.90;;;;;;5055130;28;20113;-81
2021/05/18 17:41:48;;;;;;;1.55;0.30;;;17.00;50.20;;;;;;5054569;28;20029;-83
2021/05/18 17:44:14;;;;;;;1.45;0.30;;;17.00;50.50;;;;;;5054519;28;20206;-81
2021/05/18 17:46:40;;;;;;;1.58;0.30;;;16.90;51.20;;;;;;5054578;28;20053;-82
2021/05/18 17:49:07;;;;;;;1.17;0.40;;;16.90;51.80;;;;;;5055982;28;20477;-82